This is the latest recevied weather packets stored in our database for station/object K4DNM. If no packets are shown the sender has not sent any weather packets the latest 1 day(s).
| Time | Temp. | Humidity | Pressure | Rain* | Wind** | Luminosity | Snow |
|---|---|---|---|---|---|---|---|
| 1778082476 | 22.78° C | 62% | 1013.4 hPa | 0 mm | - | 256 W/m² | - |
| 1778081876 | 22.78° C | 63% | 1013.3 hPa | 0 mm | - | 262 W/m² | - |
| 1778080678 | 22.78° C | 64% | 1013.8 hPa | 0 mm | - | 191 W/m² | - |
| 1778079772 | 22.78° C | 63% | 1013.8 hPa | 0 mm | - | 384 W/m² | - |
| 1778079472 | 22.78° C | 63% | 1013.9 hPa | 0 mm | - | 429 W/m² | - |
| 1778078930 | 22.22° C | 64% | 1014.1 hPa | 0 mm | - | 464 W/m² | - |
| 1778078565 | 21.67° C | 65% | 1014.1 hPa | 0 mm | - | 335 W/m² | - |
| 1778077425 | 21.67° C | 66% | 1014.1 hPa | 0 mm | - | 200 W/m² | - |
| 1778077066 | 21.67° C | 66% | 1014.1 hPa | 0 mm | - | 170 W/m² | - |
| 1778075561 | 20.56° C | 70% | 1014.2 hPa | 0 mm | - | 304 W/m² | - |
| 1778074360 | 20.56° C | 71% | 1014.4 hPa | 0 mm | - | 136 W/m² | - |
| 1778073761 | 20.56° C | 72% | 1014.4 hPa | 0 mm | - | 124 W/m² | - |
| 1778072862 | 20° C | 74% | 1013.9 hPa | 0 mm | - | 193 W/m² | - |
| 1778071961 | 18.89° C | 78% | 1013.8 hPa | 0 mm | - | 210 W/m² | - |
| 1778071721 | 18.89° C | 79% | 1013.7 hPa | 0 mm | - | 122 W/m² | - |
| 1778070459 | 17.78° C | 84% | 1013.8 hPa | 0 mm | - | 115 W/m² | - |
| 1778070148 | 17.78° C | 84% | 1013.8 hPa | 0 mm | - | 104 W/m² | - |
| 1778069848 | 17.78° C | 84% | 1013.7 hPa | 0 mm | - | 101 W/m² | - |
| 1778069548 | 17.78° C | 84% | 1013.7 hPa | 0 mm | - | 101 W/m² | - |
| 1778069006 | 17.22° C | 83% | 1013.5 hPa | 0 mm | - | 85 W/m² | - |
| 1778068394 | 16.67° C | 87% | 1013.7 hPa | 0 mm | - | 214 W/m² | - |
| 1778067402 | 16.11° C | 89% | 1013.9 hPa | 0 mm | - | 44 W/m² | - |
| 1778066815 | 16.11° C | 89% | 1013.8 hPa | 0 mm | - | 34 W/m² | - |
| 1778066202 | 15.56° C | 90% | 1013.6 hPa | 0 mm | - | 18 W/m² | - |
| 1778065902 | 15.56° C | 90% | 1013.7 hPa | 0 mm | - | 14 W/m² | - |
* Rain latest hour (hover to see other rain measurements)
** Current wind speed in m/s (hover to see current wind gust speed)